Decoded Metar for UMKK (KALININGRAD in RUSSIA) (IATA:KGD) | Meteo·Mobile Aviation Weather
aviador You're here:

UMKK Decoded Metar

KALININGRAD in RUSSIA
Report Time2018-08-17 14:00:00
UTC Time2018-08-17 14:38:15
Flight Rules vfr VFR
Wind170° at 6 kt
W.Decomp.*RWY 24: 1.7 kt HW 5.8 kt LCW
W.Rank170° ranks 10
Current wind is below 170° avg. (7.2)
Visibility9999 m
Phenomena:N/A
Clouds:N/A
Expected CloudBase > 4,000 ft AGL from Temp-Dew spread
CeilingNone
Temp26°C (ISA +11)
Dew Point16°C (54% RH)
AAT25.8°C
QNH1017 hPa
Density Alt1,463 ft
Elevation69 ft
Report Wrong Elevation
Raw Report
METAR UMKK 171400Z 17003MPS 060V210 CAVOK 26/16 Q1017 R24/60D NOSIG
RMK QFE761/1015=

Extra information for UMKK:More info

Metar Taf Metar & Taf Last 4 Metars F.Rules Stats Wind Profile Meteogram Temp Stats Airport Information Weather charts Add Link Nearby VenuesMetar ALERT Operation Metar Decoded Social comments